sensor_id;sensor_type;location;lat;lon;timestamp;temperature;humidity
44729;DHT22;30457;53.590;9.922;2023-01-29T00:04:01;6.90;62.30
44729;DHT22;30457;53.590;9.922;2023-01-29T00:08:26;6.90;62.80
44729;DHT22;30457;53.590;9.922;2023-01-29T00:12:52;6.90;62.50
44729;DHT22;30457;53.590;9.922;2023-01-29T00:17:17;6.90;62.60
44729;DHT22;30457;53.590;9.922;2023-01-29T00:21:43;7.00;62.60
44729;DHT22;30457;53.590;9.922;2023-01-29T00:26:09;7.00;62.50
44729;DHT22;30457;53.590;9.922;2023-01-29T00:30:38;7.00;62.50
44729;DHT22;30457;53.590;9.922;2023-01-29T00:35:05;7.00;62.40
44729;DHT22;30457;53.590;9.922;2023-01-29T00:39:31;7.00;62.50
44729;DHT22;30457;53.590;9.922;2023-01-29T00:44:04;7.00;62.70
44729;DHT22;30457;53.590;9.922;2023-01-29T00:48:48;7.00;62.50
44729;DHT22;30457;53.590;9.922;2023-01-29T00:53:14;7.00;62.70
44729;DHT22;30457;53.590;9.922;2023-01-29T00:57:39;7.00;62.70
44729;DHT22;30457;53.590;9.922;2023-01-29T01:02:05;7.00;62.90
44729;DHT22;30457;53.590;9.922;2023-01-29T01:06:49;7.00;63.30
44729;DHT22;30457;53.590;9.922;2023-01-29T01:11:15;7.00;63.40
44729;DHT22;30457;53.590;9.922;2023-01-29T01:15:40;7.00;63.30
44729;DHT22;30457;53.590;9.922;2023-01-29T01:20:07;7.10;63.60
44729;DHT22;30457;53.590;9.922;2023-01-29T01:24:33;7.10;63.20
44729;DHT22;30457;53.590;9.922;2023-01-29T01:28:58;7.10;63.30
44729;DHT22;30457;53.590;9.922;2023-01-29T01:33:24;7.10;63.60
44729;DHT22;30457;53.590;9.922;2023-01-29T01:37:49;7.10;63.80
44729;DHT22;30457;53.590;9.922;2023-01-29T01:42:15;7.10;63.70
44729;DHT22;30457;53.590;9.922;2023-01-29T01:46:40;7.10;63.50
44729;DHT22;30457;53.590;9.922;2023-01-29T01:51:06;7.20;63.50
44729;DHT22;30457;53.590;9.922;2023-01-29T01:55:34;7.20;63.70
44729;DHT22;30457;53.590;9.922;2023-01-29T02:00:08;7.20;64.10
44729;DHT22;30457;53.590;9.922;2023-01-29T02:04:45;7.20;63.90
44729;DHT22;30457;53.590;9.922;2023-01-29T02:14:15;7.20;64.10
44729;DHT22;30457;53.590;9.922;2023-01-29T02:18:41;7.20;64.30
44729;DHT22;30457;53.590;9.922;2023-01-29T02:23:25;7.30;64.30
44729;DHT22;30457;53.590;9.922;2023-01-29T02:32:52;7.30;64.20
44729;DHT22;30457;53.590;9.922;2023-01-29T02:37:29;7.30;64.20
44729;DHT22;30457;53.590;9.922;2023-01-29T02:42:11;7.30;64.20
44729;DHT22;30457;53.590;9.922;2023-01-29T02:47:00;7.30;64.30
44729;DHT22;30457;53.590;9.922;2023-01-29T02:56:18;7.30;64.30
44729;DHT22;30457;53.590;9.922;2023-01-29T03:00:47;7.30;64.20
44729;DHT22;30457;53.590;9.922;2023-01-29T03:05:22;7.30;64.00
44729;DHT22;30457;53.590;9.922;2023-01-29T03:09:51;7.40;64.10
44729;DHT22;30457;53.590;9.922;2023-01-29T03:14:28;7.40;64.20
44729;DHT22;30457;53.590;9.922;2023-01-29T03:19:19;7.40;64.20
44729;DHT22;30457;53.590;9.922;2023-01-29T03:23:45;7.40;63.50
44729;DHT22;30457;53.590;9.922;2023-01-29T03:28:29;7.40;63.80
44729;DHT22;30457;53.590;9.922;2023-01-29T03:33:17;7.40;63.70
44729;DHT22;30457;53.590;9.922;2023-01-29T03:37:46;7.40;63.70
44729;DHT22;30457;53.590;9.922;2023-01-29T03:42:26;7.40;63.80
44729;DHT22;30457;53.590;9.922;2023-01-29T03:47:11;7.40;63.70
44729;DHT22;30457;53.590;9.922;2023-01-29T03:51:57;7.40;64.00
44729;DHT22;30457;53.590;9.922;2023-01-29T03:56:55;7.40;63.70
44729;DHT22;30457;53.590;9.922;2023-01-29T04:01:40;7.40;63.90
44729;DHT22;30457;53.590;9.922;2023-01-29T04:06:16;7.40;64.00
44729;DHT22;30457;53.590;9.922;2023-01-29T04:11:03;7.40;64.10
44729;DHT22;30457;53.590;9.922;2023-01-29T04:15:33;7.30;64.20
44729;DHT22;30457;53.590;9.922;2023-01-29T04:20:01;7.30;64.30
44729;DHT22;30457;53.590;9.922;2023-01-29T04:24:29;7.30;64.60
44729;DHT22;30457;53.590;9.922;2023-01-29T04:38:37;7.30;64.40
44729;DHT22;30457;53.590;9.922;2023-01-29T04:43:25;7.30;64.20
44729;DHT22;30457;53.590;9.922;2023-01-29T04:48:21;7.30;64.00
44729;DHT22;30457;53.590;9.922;2023-01-29T04:53:05;7.20;64.20
44729;DHT22;30457;53.590;9.922;2023-01-29T04:58:14;7.20;64.40
44729;DHT22;30457;53.590;9.922;2023-01-29T05:02:45;7.20;64.40
44729;DHT22;30457;53.590;9.922;2023-01-29T05:07:13;7.20;64.10
44729;DHT22;30457;53.590;9.922;2023-01-29T05:11:40;7.20;63.90
44729;DHT22;30457;53.590;9.922;2023-01-29T05:16:18;7.20;63.90
44729;DHT22;30457;53.590;9.922;2023-01-29T05:20:46;7.30;64.10
44729;DHT22;30457;53.590;9.922;2023-01-29T05:25:20;7.20;63.80
44729;DHT22;30457;53.590;9.922;2023-01-29T05:29:46;7.30;63.80
44729;DHT22;30457;53.590;9.922;2023-01-29T05:34:12;7.30;63.70
44729;DHT22;30457;53.590;9.922;2023-01-29T05:38:37;7.20;63.50
44729;DHT22;30457;53.590;9.922;2023-01-29T05:43:04;7.20;63.50
44729;DHT22;30457;53.590;9.922;2023-01-29T05:47:30;7.20;63.30
44729;DHT22;30457;53.590;9.922;2023-01-29T05:51:55;7.20;63.30
44729;DHT22;30457;53.590;9.922;2023-01-29T05:56:21;7.20;63.40
44729;DHT22;30457;53.590;9.922;2023-01-29T06:00:46;7.20;63.30
44729;DHT22;30457;53.590;9.922;2023-01-29T06:05:12;7.20;63.30
44729;DHT22;30457;53.590;9.922;2023-01-29T06:09:38;7.20;64.10
44729;DHT22;30457;53.590;9.922;2023-01-29T06:14:03;7.20;63.30
44729;DHT22;30457;53.590;9.922;2023-01-29T06:18:29;7.10;63.30
44729;DHT22;30457;53.590;9.922;2023-01-29T06:22:54;7.10;63.20
44729;DHT22;30457;53.590;9.922;2023-01-29T06:27:20;7.10;63.10
44729;DHT22;30457;53.590;9.922;2023-01-29T06:31:45;7.10;63.10
44729;DHT22;30457;53.590;9.922;2023-01-29T06:36:11;7.10;63.10
44729;DHT22;30457;53.590;9.922;2023-01-29T06:40:37;7.20;63.10
44729;DHT22;30457;53.590;9.922;2023-01-29T06:45:03;7.20;63.00
44729;DHT22;30457;53.590;9.922;2023-01-29T06:49:29;7.10;63.00
44729;DHT22;30457;53.590;9.922;2023-01-29T06:53:55;7.10;62.90
44729;DHT22;30457;53.590;9.922;2023-01-29T06:58:21;7.10;62.90
44729;DHT22;30457;53.590;9.922;2023-01-29T07:02:49;7.10;62.90
44729;DHT22;30457;53.590;9.922;2023-01-29T07:07:15;7.10;63.30
44729;DHT22;30457;53.590;9.922;2023-01-29T07:11:40;7.10;63.10
44729;DHT22;30457;53.590;9.922;2023-01-29T07:16:06;7.10;63.10
44729;DHT22;30457;53.590;9.922;2023-01-29T07:20:32;7.10;63.00
44729;DHT22;30457;53.590;9.922;2023-01-29T07:24:57;7.10;63.00
44729;DHT22;30457;53.590;9.922;2023-01-29T07:29:23;7.10;62.80
44729;DHT22;30457;53.590;9.922;2023-01-29T07:33:48;7.10;62.70
44729;DHT22;30457;53.590;9.922;2023-01-29T07:38:14;7.10;62.60
44729;DHT22;30457;53.590;9.922;2023-01-29T07:42:40;7.00;62.40
44729;DHT22;30457;53.590;9.922;2023-01-29T07:47:08;7.00;62.30
44729;DHT22;30457;53.590;9.922;2023-01-29T07:51:34;7.00;62.20
44729;DHT22;30457;53.590;9.922;2023-01-29T07:55:59;6.90;62.20
44729;DHT22;30457;53.590;9.922;2023-01-29T08:00:25;6.90;62.20
44729;DHT22;30457;53.590;9.922;2023-01-29T08:04:50;6.90;62.40
44729;DHT22;30457;53.590;9.922;2023-01-29T08:09:16;6.90;62.40
44729;DHT22;30457;53.590;9.922;2023-01-29T08:13:41;6.90;62.60
44729;DHT22;30457;53.590;9.922;2023-01-29T08:18:07;6.80;62.50
44729;DHT22;30457;53.590;9.922;2023-01-29T08:22:34;6.80;62.70
44729;DHT22;30457;53.590;9.922;2023-01-29T08:26:59;6.80;62.90
44729;DHT22;30457;53.590;9.922;2023-01-29T08:31:25;6.80;62.90
44729;DHT22;30457;53.590;9.922;2023-01-29T08:35:50;6.90;63.00
44729;DHT22;30457;53.590;9.922;2023-01-29T08:40:16;6.90;63.10
44729;DHT22;30457;53.590;9.922;2023-01-29T08:44:42;6.90;63.00
44729;DHT22;30457;53.590;9.922;2023-01-29T08:49:08;7.00;63.10
44729;DHT22;30457;53.590;9.922;2023-01-29T08:53:33;7.00;63.20
44729;DHT22;30457;53.590;9.922;2023-01-29T08:57:59;7.00;63.20
44729;DHT22;30457;53.590;9.922;2023-01-29T09:02:25;7.00;63.10
44729;DHT22;30457;53.590;9.922;2023-01-29T09:06:50;7.00;63.30
44729;DHT22;30457;53.590;9.922;2023-01-29T09:11:16;7.10;63.30
44729;DHT22;30457;53.590;9.922;2023-01-29T09:15:42;7.10;63.40
44729;DHT22;30457;53.590;9.922;2023-01-29T09:20:08;7.10;63.40
44729;DHT22;30457;53.590;9.922;2023-01-29T09:24:34;7.10;63.70
44729;DHT22;30457;53.590;9.922;2023-01-29T09:28:59;7.20;63.90
44729;DHT22;30457;53.590;9.922;2023-01-29T09:33:25;7.20;64.00
44729;DHT22;30457;53.590;9.922;2023-01-29T09:37:51;7.30;64.50
44729;DHT22;30457;53.590;9.922;2023-01-29T09:42:27;7.30;64.40
44729;DHT22;30457;53.590;9.922;2023-01-29T09:46:55;7.30;64.80
44729;DHT22;30457;53.590;9.922;2023-01-29T09:51:27;7.40;64.80
44729;DHT22;30457;53.590;9.922;2023-01-29T09:56:00;7.40;65.30
44729;DHT22;30457;53.590;9.922;2023-01-29T10:10:24;7.50;65.10
44729;DHT22;30457;53.590;9.922;2023-01-29T10:15:06;7.50;65.00
44729;DHT22;30457;53.590;9.922;2023-01-29T10:25:04;7.60;65.20
44729;DHT22;30457;53.590;9.922;2023-01-29T10:29:31;7.60;65.10
44729;DHT22;30457;53.590;9.922;2023-01-29T10:34:44;7.60;64.90
44729;DHT22;30457;53.590;9.922;2023-01-29T10:38:50;7.60;64.90
44729;DHT22;30457;53.590;9.922;2023-01-29T10:43:31;7.70;65.10
44729;DHT22;30457;53.590;9.922;2023-01-29T10:53:32;7.70;65.30
44729;DHT22;30457;53.590;9.922;2023-01-29T10:58:13;7.70;65.40
44729;DHT22;30457;53.590;9.922;2023-01-29T11:02:48;7.70;64.90
44729;DHT22;30457;53.590;9.922;2023-01-29T11:07:17;7.80;64.90
44729;DHT22;30457;53.590;9.922;2023-01-29T11:11:58;7.80;64.90
44729;DHT22;30457;53.590;9.922;2023-01-29T11:16:26;7.80;65.00
44729;DHT22;30457;53.590;9.922;2023-01-29T11:21:02;7.80;64.70
44729;DHT22;30457;53.590;9.922;2023-01-29T11:25:28;7.80;64.90
44729;DHT22;30457;53.590;9.922;2023-01-29T11:29:56;7.80;64.60
44729;DHT22;30457;53.590;9.922;2023-01-29T11:34:23;7.90;64.60
44729;DHT22;30457;53.590;9.922;2023-01-29T11:39:08;7.90;64.50
44729;DHT22;30457;53.590;9.922;2023-01-29T11:43:34;7.90;64.80
44729;DHT22;30457;53.590;9.922;2023-01-29T11:48:00;7.90;64.50
44729;DHT22;30457;53.590;9.922;2023-01-29T11:52:36;7.90;64.60
44729;DHT22;30457;53.590;9.922;2023-01-29T11:57:03;7.90;64.70
44729;DHT22;30457;53.590;9.922;2023-01-29T12:01:37;7.90;64.40
44729;DHT22;30457;53.590;9.922;2023-01-29T12:06:17;8.00;64.70
44729;DHT22;30457;53.590;9.922;2023-01-29T12:10:44;8.00;65.10
44729;DHT22;30457;53.590;9.922;2023-01-29T12:15:20;8.00;64.50
44729;DHT22;30457;53.590;9.922;2023-01-29T12:19:52;8.00;64.20
44729;DHT22;30457;53.590;9.922;2023-01-29T12:24:33;8.10;64.00
44729;DHT22;30457;53.590;9.922;2023-01-29T12:29:23;8.10;63.90
44729;DHT22;30457;53.590;9.922;2023-01-29T12:34:14;8.10;63.80
44729;DHT22;30457;53.590;9.922;2023-01-29T12:38:43;8.20;63.90
44729;DHT22;30457;53.590;9.922;2023-01-29T12:43:23;8.20;63.70
44729;DHT22;30457;53.590;9.922;2023-01-29T12:48:00;8.20;63.70
44729;DHT22;30457;53.590;9.922;2023-01-29T12:57:05;8.20;63.70
44729;DHT22;30457;53.590;9.922;2023-01-29T13:01:36;8.20;63.60
44729;DHT22;30457;53.590;9.922;2023-01-29T13:06:07;8.30;64.30
44729;DHT22;30457;53.590;9.922;2023-01-29T13:10:37;8.30;63.30
44729;DHT22;30457;53.590;9.922;2023-01-29T13:15:15;8.30;63.20
44729;DHT22;30457;53.590;9.922;2023-01-29T13:19:44;8.30;63.10
44729;DHT22;30457;53.590;9.922;2023-01-29T13:24:14;8.30;63.00
44729;DHT22;30457;53.590;9.922;2023-01-29T13:28:43;8.30;62.70
44729;DHT22;30457;53.590;9.922;2023-01-29T13:33:20;8.30;62.70
44729;DHT22;30457;53.590;9.922;2023-01-29T13:37:49;8.30;62.80
44729;DHT22;30457;53.590;9.922;2023-01-29T13:42:19;8.30;62.70
44729;DHT22;30457;53.590;9.922;2023-01-29T13:47:20;8.20;62.60
44729;DHT22;30457;53.590;9.922;2023-01-29T13:51:46;8.20;62.60
44729;DHT22;30457;53.590;9.922;2023-01-29T14:00:59;8.20;62.90
44729;DHT22;30457;53.590;9.922;2023-01-29T14:10:07;8.30;63.20
44729;DHT22;30457;53.590;9.922;2023-01-29T14:19:18;8.30;63.20
44729;DHT22;30457;53.590;9.922;2023-01-29T14:23:49;8.30;63.00
44729;DHT22;30457;53.590;9.922;2023-01-29T14:28:21;8.30;63.20
44729;DHT22;30457;53.590;9.922;2023-01-29T14:32:48;8.20;63.20
44729;DHT22;30457;53.590;9.922;2023-01-29T14:41:41;8.30;63.20
44729;DHT22;30457;53.590;9.922;2023-01-29T14:51:11;8.30;63.20
44729;DHT22;30457;53.590;9.922;2023-01-29T14:55:42;8.30;63.10
44729;DHT22;30457;53.590;9.922;2023-01-29T15:00:36;8.30;63.00
44729;DHT22;30457;53.590;9.922;2023-01-29T15:05:07;8.30;62.90
44729;DHT22;30457;53.590;9.922;2023-01-29T15:09:46;8.30;62.90
44729;DHT22;30457;53.590;9.922;2023-01-29T15:14:20;8.30;63.00
44729;DHT22;30457;53.590;9.922;2023-01-29T15:18:54;8.20;62.90
44729;DHT22;30457;53.590;9.922;2023-01-29T15:23:28;8.20;63.00
44729;DHT22;30457;53.590;9.922;2023-01-29T15:27:55;8.20;63.10
44729;DHT22;30457;53.590;9.922;2023-01-29T15:32:27;8.20;62.30
44729;DHT22;30457;53.590;9.922;2023-01-29T15:36:55;8.20;63.10
44729;DHT22;30457;53.590;9.922;2023-01-29T15:41:21;8.20;63.10
44729;DHT22;30457;53.590;9.922;2023-01-29T15:45:51;8.20;63.00
44729;DHT22;30457;53.590;9.922;2023-01-29T15:50:17;8.20;63.00
44729;DHT22;30457;53.590;9.922;2023-01-29T15:54:43;8.20;63.00
44729;DHT22;30457;53.590;9.922;2023-01-29T15:59:22;8.10;63.00
44729;DHT22;30457;53.590;9.922;2023-01-29T16:03:49;8.20;63.20
44729;DHT22;30457;53.590;9.922;2023-01-29T16:08:15;8.10;63.00
44729;DHT22;30457;53.590;9.922;2023-01-29T16:12:41;8.10;63.00
44729;DHT22;30457;53.590;9.922;2023-01-29T16:17:30;8.10;63.00
44729;DHT22;30457;53.590;9.922;2023-01-29T16:22:01;8.10;63.00
44729;DHT22;30457;53.590;9.922;2023-01-29T16:26:31;8.10;62.80
44729;DHT22;30457;53.590;9.922;2023-01-29T16:30:58;8.10;62.80
44729;DHT22;30457;53.590;9.922;2023-01-29T16:35:25;8.10;62.80
44729;DHT22;30457;53.590;9.922;2023-01-29T16:39:51;8.00;62.60
44729;DHT22;30457;53.590;9.922;2023-01-29T16:48:46;8.00;62.60
44729;DHT22;30457;53.590;9.922;2023-01-29T16:53:17;8.00;62.60
44729;DHT22;30457;53.590;9.922;2023-01-29T16:57:50;7.90;62.50
44729;DHT22;30457;53.590;9.922;2023-01-29T17:02:34;7.90;62.60
44729;DHT22;30457;53.590;9.922;2023-01-29T17:07:01;7.90;62.60
44729;DHT22;30457;53.590;9.922;2023-01-29T17:20:50;7.80;63.10
44729;DHT22;30457;53.590;9.922;2023-01-29T17:25:17;7.80;62.80
44729;DHT22;30457;53.590;9.922;2023-01-29T17:29:43;7.80;63.10
44729;DHT22;30457;53.590;9.922;2023-01-29T17:34:10;7.70;63.00
44729;DHT22;30457;53.590;9.922;2023-01-29T17:38:39;7.70;63.10
44729;DHT22;30457;53.590;9.922;2023-01-29T17:43:04;7.70;62.90
44729;DHT22;30457;53.590;9.922;2023-01-29T17:47:31;7.70;62.80
44729;DHT22;30457;53.590;9.922;2023-01-29T17:51:57;7.70;63.00
44729;DHT22;30457;53.590;9.922;2023-01-29T17:56:24;7.60;63.10
44729;DHT22;30457;53.590;9.922;2023-01-29T18:00:54;7.60;63.20
44729;DHT22;30457;53.590;9.922;2023-01-29T18:05:19;7.50;63.20
44729;DHT22;30457;53.590;9.922;2023-01-29T18:09:45;7.50;63.70
44729;DHT22;30457;53.590;9.922;2023-01-29T18:14:11;7.50;63.50
44729;DHT22;30457;53.590;9.922;2023-01-29T18:18:36;7.40;63.30
44729;DHT22;30457;53.590;9.922;2023-01-29T18:23:02;7.40;63.60
44729;DHT22;30457;53.590;9.922;2023-01-29T18:27:28;7.40;63.70
44729;DHT22;30457;53.590;9.922;2023-01-29T18:31:54;7.40;63.80
44729;DHT22;30457;53.590;9.922;2023-01-29T18:36:19;7.40;63.90
44729;DHT22;30457;53.590;9.922;2023-01-29T18:40:45;7.40;64.00
44729;DHT22;30457;53.590;9.922;2023-01-29T18:45:12;7.30;63.80
44729;DHT22;30457;53.590;9.922;2023-01-29T18:49:38;7.30;64.00
44729;DHT22;30457;53.590;9.922;2023-01-29T18:54:03;7.30;63.90
44729;DHT22;30457;53.590;9.922;2023-01-29T18:58:33;7.30;63.80
44729;DHT22;30457;53.590;9.922;2023-01-29T19:03:00;7.30;63.90
44729;DHT22;30457;53.590;9.922;2023-01-29T19:07:25;7.30;63.80
44729;DHT22;30457;53.590;9.922;2023-01-29T19:11:51;7.30;63.70
44729;DHT22;30457;53.590;9.922;2023-01-29T19:16:16;7.30;63.90
44729;DHT22;30457;53.590;9.922;2023-01-29T19:20:42;7.30;63.90
44729;DHT22;30457;53.590;9.922;2023-01-29T19:25:08;7.30;63.80
44729;DHT22;30457;53.590;9.922;2023-01-29T19:29:34;7.30;63.90
44729;DHT22;30457;53.590;9.922;2023-01-29T19:34:00;7.30;63.90
44729;DHT22;30457;53.590;9.922;2023-01-29T19:38:26;7.30;63.90
44729;DHT22;30457;53.590;9.922;2023-01-29T19:42:53;7.30;63.80
44729;DHT22;30457;53.590;9.922;2023-01-29T19:47:19;7.30;63.90
44729;DHT22;30457;53.590;9.922;2023-01-29T19:51:45;7.30;63.90
44729;DHT22;30457;53.590;9.922;2023-01-29T19:56:13;7.30;63.90
44729;DHT22;30457;53.590;9.922;2023-01-29T20:00:39;7.30;64.00
44729;DHT22;30457;53.590;9.922;2023-01-29T20:05:05;7.30;64.10
44729;DHT22;30457;53.590;9.922;2023-01-29T20:09:32;7.30;63.90
44729;DHT22;30457;53.590;9.922;2023-01-29T20:13:58;7.30;64.10
44729;DHT22;30457;53.590;9.922;2023-01-29T20:18:23;7.30;64.00
44729;DHT22;30457;53.590;9.922;2023-01-29T20:22:49;7.30;64.10
44729;DHT22;30457;53.590;9.922;2023-01-29T20:27:14;7.30;64.00
44729;DHT22;30457;53.590;9.922;2023-01-29T20:31:40;7.30;63.90
44729;DHT22;30457;53.590;9.922;2023-01-29T20:36:08;7.30;64.10
44729;DHT22;30457;53.590;9.922;2023-01-29T20:40:34;7.30;64.10
44729;DHT22;30457;53.590;9.922;2023-01-29T20:45:00;7.30;64.10
44729;DHT22;30457;53.590;9.922;2023-01-29T20:49:25;7.30;63.90
44729;DHT22;30457;53.590;9.922;2023-01-29T20:53:52;7.30;63.80
44729;DHT22;30457;53.590;9.922;2023-01-29T20:58:20;7.30;63.80
44729;DHT22;30457;53.590;9.922;2023-01-29T21:02:45;7.30;63.90
44729;DHT22;30457;53.590;9.922;2023-01-29T21:07:11;7.30;63.80
44729;DHT22;30457;53.590;9.922;2023-01-29T21:11:36;7.40;63.90
44729;DHT22;30457;53.590;9.922;2023-01-29T21:16:03;7.40;63.90
44729;DHT22;30457;53.590;9.922;2023-01-29T21:20:29;7.40;63.80
44729;DHT22;30457;53.590;9.922;2023-01-29T21:24:55;7.40;63.90
44729;DHT22;30457;53.590;9.922;2023-01-29T21:29:21;7.40;64.00
44729;DHT22;30457;53.590;9.922;2023-01-29T21:33:47;7.40;63.90
44729;DHT22;30457;53.590;9.922;2023-01-29T21:38:12;7.40;63.90
44729;DHT22;30457;53.590;9.922;2023-01-29T21:42:38;7.40;63.80
44729;DHT22;30457;53.590;9.922;2023-01-29T21:47:22;7.50;64.10
44729;DHT22;30457;53.590;9.922;2023-01-29T21:51:47;7.50;64.00
44729;DHT22;30457;53.590;9.922;2023-01-29T21:56:13;7.50;64.00
44729;DHT22;30457;53.590;9.922;2023-01-29T22:00:43;7.50;64.00
44729;DHT22;30457;53.590;9.922;2023-01-29T22:05:12;7.50;64.20
44729;DHT22;30457;53.590;9.922;2023-01-29T22:09:38;7.50;64.10
44729;DHT22;30457;53.590;9.922;2023-01-29T22:14:04;7.50;64.10
44729;DHT22;30457;53.590;9.922;2023-01-29T22:18:30;7.50;64.10
44729;DHT22;30457;53.590;9.922;2023-01-29T22:22:57;7.60;64.40
44729;DHT22;30457;53.590;9.922;2023-01-29T22:27:23;7.60;64.60
44729;DHT22;30457;53.590;9.922;2023-01-29T22:31:49;7.60;64.50
44729;DHT22;30457;53.590;9.922;2023-01-29T22:36:15;7.60;65.60
44729;DHT22;30457;53.590;9.922;2023-01-29T22:40:48;7.60;65.00
44729;DHT22;30457;53.590;9.922;2023-01-29T22:45:13;7.60;65.10
44729;DHT22;30457;53.590;9.922;2023-01-29T22:49:39;7.60;65.00
44729;DHT22;30457;53.590;9.922;2023-01-29T22:54:05;7.60;65.00
44729;DHT22;30457;53.590;9.922;2023-01-29T22:58:30;7.60;64.90
44729;DHT22;30457;53.590;9.922;2023-01-29T23:02:56;7.70;65.00
44729;DHT22;30457;53.590;9.922;2023-01-29T23:07:22;7.70;65.10
44729;DHT22;30457;53.590;9.922;2023-01-29T23:11:47;7.70;65.20
44729;DHT22;30457;53.590;9.922;2023-01-29T23:16:14;7.70;65.10
44729;DHT22;30457;53.590;9.922;2023-01-29T23:20:40;7.70;65.20
44729;DHT22;30457;53.590;9.922;2023-01-29T23:25:06;7.70;65.20
44729;DHT22;30457;53.590;9.922;2023-01-29T23:29:31;7.70;65.30
44729;DHT22;30457;53.590;9.922;2023-01-29T23:33:57;7.70;65.30
44729;DHT22;30457;53.590;9.922;2023-01-29T23:38:22;7.70;65.30
44729;DHT22;30457;53.590;9.922;2023-01-29T23:42:48;7.70;65.30
44729;DHT22;30457;53.590;9.922;2023-01-29T23:47:14;7.70;65.40
44729;DHT22;30457;53.590;9.922;2023-01-29T23:51:39;7.70;65.40
44729;DHT22;30457;53.590;9.922;2023-01-29T23:56:05;7.70;65.60
